Catàleg de serveis del Meteocat

Dades de l'estació automàtica Tremp

?
?
Resum diari 21:00 TU
Dades diàries de l'estació meteorològica
Temperatura mitjana -0.6 °C
Temperatura màxima 4.1 °C 14:59 TU
Temperatura mínima -4.1 °C 4:37 TU
Humitat relativa mitjana 93%
Precipitació acumulada 0.1 mm
Ratxa màxima del vent (10 m) 10.1 km/h - 263º 20:52 TU
Irradiació solar global 2.8 MJ/m2

El tram horari està expressat en Temps Universal (TU). Cal sumar una hora en horari d'hivern i dues en horari d'estiu per passar a l'hora oficial.

Tremp

Metadades estació meteorol´gica
Municipi Tremp
Comarca Pallars Jussà
Altitud 473 m
Data alta 22.10.2012
Estat actual Operativa
Dades de període
Període
TU
TM
°C
TX
°C
TN
°C
HRM
%
PPT
mm
VVM (10 m)
km/h
DVM (10 m)
graus
VVX (10 m)
km/h
RS
W/m2
00:00 - 00:30 -1.8 -1.7 -1.9 93 0.0 2.9 292 5.4 0
00:30 - 01:00 -2.2 -1.8 -2.5 94 0.0 2.9 299 5.8 0
01:00 - 01:30 -2.5 -2.1 -2.9 93 0.0 4.0 292 7.6 0
01:30 - 02:00 -2.4 -2.3 -2.8 94 0.0 2.9 259 7.9 0
02:00 - 02:30 -2.9 -2.8 -3.2 95 0.0 1.1 160 2.9 0
02:30 - 03:00 -3.2 -3.0 -3.4 95 0.0 0.4 300 2.2 0
03:00 - 03:30 -3.8 -3.2 -4.0 95 0.0 2.5 335 4.0 0
03:30 - 04:00 -3.4 -3.3 -3.6 96 0.0 2.9 281 5.4 0
04:00 - 04:30 -3.4 -3.4 -3.6 95 0.0 2.2 258 5.0 0
04:30 - 05:00 -3.9 -3.6 -4.1 96 0.0 2.2 323 4.7 0
05:00 - 05:30 -3.6 -3.5 -3.7 98 0.0 3.6 307 5.8 0
05:30 - 06:00 -3.3 -3.0 -3.5 100 0.0 2.2 292 4.7 0
06:00 - 06:30 -3.0 -2.9 -3.2 99 0.0 2.5 285 6.1 0
06:30 - 07:00 -3.1 -2.9 -3.3 97 0.0 1.4 209 6.1 0
07:00 - 07:30 -2.8 -2.7 -2.9 100 0.0 1.8 225 4.0 1
07:30 - 08:00 -2.6 -2.4 -2.7 100 0.0 1.1 279 4.0 10
08:00 - 08:30 -2.2 -1.8 -2.6 100 0.0 2.2 286 4.3 32
08:30 - 09:00 -1.6 -1.4 -1.8 100 0.0 1.1 283 3.6 50
09:00 - 09:30 -1.3 -1.1 -1.5 100 0.0 2.5 281 5.4 69
09:30 - 10:00 -1.2 -0.9 -1.3 100 0.0 2.2 327 5.0 79
10:00 - 10:30 -0.8 -0.4 -1.2 100 0.1 3.2 163 7.9 134
10:30 - 11:00 -0.4 -0.2 -0.7 100 0.0 5.0 157 9.0 119
11:00 - 11:30 -0.3 -0.2 -0.4 100 0.0 1.4 132 4.7 79
11:30 - 12:00 0.0 0.3 -0.2 100 0.0 1.1 43 3.6 104
12:00 - 12:30 0.7 1.0 0.4 98 0.0 1.4 112 4.7 138
12:30 - 13:00 1.3 1.5 0.9 95 0.0 2.2 172 5.4 146
13:00 - 13:30 2.0 2.5 1.5 90 0.0 0.7 252 3.2 162
13:30 - 14:00 2.8 3.1 2.5 84 0.0 1.4 69 4.7 149
14:00 - 14:30 3.4 3.6 3.1 81 0.0 1.1 142 4.0 125
14:30 - 15:00 3.8 4.1 3.5 78 0.0 1.1 142 3.2 123
15:00 - 15:30 3.9 4.1 3.7 78 0.0 3.2 127 6.8 55
15:30 - 16:00 3.5 3.7 3.5 79 0.0 1.1 122 3.2 32
16:00 - 16:30 3.4 3.5 3.3 80 0.0 1.1 322 2.5 13
16:30 - 17:00 3.2 3.3 3.0 81 0.0 0.7 308 2.2 3
17:00 - 17:30 2.8 3.0 2.5 83 0.0 3.2 263 5.8 0
17:30 - 18:00 2.1 2.5 1.8 86 0.0 2.9 310 4.7 0
18:00 - 18:30 1.3 1.8 0.5 88 0.0 2.9 296 6.1 0
18:30 - 19:00 0.4 0.8 0.0 90 0.0 4.7 287 7.6 0
19:00 - 19:30 0.3 0.5 0.0 90 0.0 4.7 297 8.3 0
19:30 - 20:00 -0.3 0.1 -0.5 92 0.0 5.8 290 9.4 0
20:00 - 20:30 -0.7 -0.4 -1.0 92 0.0 4.0 300 5.8 0
20:30 - 21:00 -0.6 -0.4 -0.8 92 0.0 6.1 264 10.1 0
21:00 - 21:30 -1.2 -0.5 -1.7 93 0.0 2.9 280 7.6 0
21:30 - 22:00 -1.8 -1.4 -2.4 95 0.0 4.0 283 6.8 0

Les dades en taronja només han passat un control de qualitat automàtic. Resta pendent la seva validació definitiva.